sensor_id;sensor_type;location;lat;lon;timestamp;pressure;altitude;pressure_sealevel;temperature;humidity
72925;BME280;61070;50.794;7.054;2024-02-21T00:00:30;101814.63;;;8.65;70.01
72925;BME280;61070;50.794;7.054;2024-02-21T00:01:30;101808.34;;;8.72;69.53
72925;BME280;61070;50.794;7.054;2024-02-21T00:02:30;101806.63;;;8.71;69.32
72925;BME280;61070;50.794;7.054;2024-02-21T00:03:31;101808.53;;;8.63;70.00
72925;BME280;61070;50.794;7.054;2024-02-21T00:04:31;101814.72;;;8.59;70.03
72925;BME280;61070;50.794;7.054;2024-02-21T00:05:31;101811.19;;;8.62;70.16
72925;BME280;61070;50.794;7.054;2024-02-21T00:06:32;101810.34;;;8.60;70.37
72925;BME280;61070;50.794;7.054;2024-02-21T00:07:32;101805.00;;;8.64;70.21
72925;BME280;61070;50.794;7.054;2024-02-21T00:08:32;101803.28;;;8.63;70.13
72925;BME280;61070;50.794;7.054;2024-02-21T00:09:33;101801.34;;;8.73;69.96
72925;BME280;61070;50.794;7.054;2024-02-21T00:10:33;101798.84;;;8.67;70.06
72925;BME280;61070;50.794;7.054;2024-02-21T00:11:33;101795.47;;;8.62;70.28
72925;BME280;61070;50.794;7.054;2024-02-21T00:12:33;101795.38;;;8.65;70.17
72925;BME280;61070;50.794;7.054;2024-02-21T00:13:34;101797.16;;;8.64;70.42
72925;BME280;61070;50.794;7.054;2024-02-21T00:14:34;101791.09;;;8.62;69.97
72925;BME280;61070;50.794;7.054;2024-02-21T00:15:34;101791.00;;;8.67;70.07
72925;BME280;61070;50.794;7.054;2024-02-21T00:16:35;101795.38;;;8.65;70.12
72925;BME280;61070;50.794;7.054;2024-02-21T00:17:35;101793.78;;;8.59;70.34
72925;BME280;61070;50.794;7.054;2024-02-21T00:18:35;101802.59;;;8.55;70.61
72925;BME280;61070;50.794;7.054;2024-02-21T00:19:35;101799.97;;;8.55;71.01
72925;BME280;61070;50.794;7.054;2024-02-21T00:20:36;101801.78;;;8.53;70.97
72925;BME280;61070;50.794;7.054;2024-02-21T00:21:36;101793.00;;;8.54;70.23
72925;BME280;61070;50.794;7.054;2024-02-21T00:22:37;101795.63;;;8.56;70.69
72925;BME280;61070;50.794;7.054;2024-02-21T00:23:37;101799.91;;;8.58;70.31
72925;BME280;61070;50.794;7.054;2024-02-21T00:24:38;101786.88;;;8.55;70.38
72925;BME280;61070;50.794;7.054;2024-02-21T00:25:38;101788.19;;;8.74;69.71
72925;BME280;61070;50.794;7.054;2024-02-21T00:26:38;101795.34;;;8.68;70.08
72925;BME280;61070;50.794;7.054;2024-02-21T00:27:38;101790.16;;;8.65;70.11
72925;BME280;61070;50.794;7.054;2024-02-21T00:28:39;101790.94;;;8.68;70.01
72925;BME280;61070;50.794;7.054;2024-02-21T00:29:39;101781.53;;;8.60;70.61
72925;BME280;61070;50.794;7.054;2024-02-21T00:30:39;101782.44;;;8.59;70.58
72925;BME280;61070;50.794;7.054;2024-02-21T00:31:40;101778.19;;;8.53;71.06
72925;BME280;61070;50.794;7.054;2024-02-21T00:32:40;101786.09;;;8.50;71.13
72925;BME280;61070;50.794;7.054;2024-02-21T00:33:40;101778.19;;;8.53;70.99
72925;BME280;61070;50.794;7.054;2024-02-21T00:34:41;101772.13;;;8.51;71.39
72925;BME280;61070;50.794;7.054;2024-02-21T00:35:41;101774.75;;;8.51;71.15
72925;BME280;61070;50.794;7.054;2024-02-21T00:36:42;101770.28;;;8.54;70.86
72925;BME280;61070;50.794;7.054;2024-02-21T00:37:42;101772.97;;;8.53;71.24
72925;BME280;61070;50.794;7.054;2024-02-21T00:38:42;101773.91;;;8.50;71.24
72925;BME280;61070;50.794;7.054;2024-02-21T00:39:43;101766.97;;;8.48;71.39
72925;BME280;61070;50.794;7.054;2024-02-21T00:40:43;101762.41;;;8.56;70.98
72925;BME280;61070;50.794;7.054;2024-02-21T00:41:43;101766.72;;;8.59;71.19
72925;BME280;61070;50.794;7.054;2024-02-21T00:42:43;101769.28;;;8.60;71.06
72925;BME280;61070;50.794;7.054;2024-02-21T00:43:44;101768.38;;;8.63;70.93
72925;BME280;61070;50.794;7.054;2024-02-21T00:44:44;101773.75;;;8.57;71.21
72925;BME280;61070;50.794;7.054;2024-02-21T00:45:44;101769.47;;;8.52;71.41
72925;BME280;61070;50.794;7.054;2024-02-21T00:46:45;101773.78;;;8.55;71.62
72925;BME280;61070;50.794;7.054;2024-02-21T00:47:46;101764.38;;;8.45;71.56
72925;BME280;61070;50.794;7.054;2024-02-21T00:48:46;101764.34;;;8.48;71.49
72925;BME280;61070;50.794;7.054;2024-02-21T00:49:47;101760.81;;;8.49;71.64
72925;BME280;61070;50.794;7.054;2024-02-21T00:50:47;101760.66;;;8.57;71.23
72925;BME280;61070;50.794;7.054;2024-02-21T00:51:47;101759.81;;;8.56;71.30
72925;BME280;61070;50.794;7.054;2024-02-21T00:52:47;101763.19;;;8.60;71.34
72925;BME280;61070;50.794;7.054;2024-02-21T00:53:49;101761.56;;;8.56;71.27
72925;BME280;61070;50.794;7.054;2024-02-21T00:54:49;101766.66;;;8.60;71.15
72925;BME280;61070;50.794;7.054;2024-02-21T00:55:49;101769.44;;;8.54;71.22
72925;BME280;61070;50.794;7.054;2024-02-21T00:56:49;101766.91;;;8.49;71.34
72925;BME280;61070;50.794;7.054;2024-02-21T00:57:50;101764.38;;;8.46;71.85
72925;BME280;61070;50.794;7.054;2024-02-21T00:58:50;101758.28;;;8.46;71.74
72925;BME280;61070;50.794;7.054;2024-02-21T00:59:50;101767.00;;;8.45;71.85
72925;BME280;61070;50.794;7.054;2024-02-21T01:00:50;101751.19;;;8.49;71.47
72925;BME280;61070;50.794;7.054;2024-02-21T01:01:50;101751.19;;;8.51;71.58
72925;BME280;61070;50.794;7.054;2024-02-21T01:02:51;101759.91;;;8.50;71.72
72925;BME280;61070;50.794;7.054;2024-02-21T01:03:51;101748.66;;;8.46;71.91
72925;BME280;61070;50.794;7.054;2024-02-21T01:04:53;101749.59;;;8.44;71.85
72925;BME280;61070;50.794;7.054;2024-02-21T01:05:53;101749.47;;;8.48;72.00
72925;BME280;61070;50.794;7.054;2024-02-21T01:06:54;101748.56;;;8.49;71.79
72925;BME280;61070;50.794;7.054;2024-02-21T01:07:54;101758.19;;;8.50;71.56
72925;BME280;61070;50.794;7.054;2024-02-21T01:08:54;101746.88;;;8.48;72.00
72925;BME280;61070;50.794;7.054;2024-02-21T01:09:55;101748.47;;;8.54;71.48
72925;BME280;61070;50.794;7.054;2024-02-21T01:10:55;101752.03;;;8.51;71.92
72925;BME280;61070;50.794;7.054;2024-02-21T01:11:55;101747.66;;;8.52;71.63
72925;BME280;61070;50.794;7.054;2024-02-21T01:12:55;101750.38;;;8.47;72.24
72925;BME280;61070;50.794;7.054;2024-02-21T01:13:56;101742.47;;;8.50;71.63
72925;BME280;61070;50.794;7.054;2024-02-21T01:14:56;101743.28;;;8.52;71.75
72925;BME280;61070;50.794;7.054;2024-02-21T01:15:56;101743.38;;;8.48;72.04
72925;BME280;61070;50.794;7.054;2024-02-21T01:16:57;101739.97;;;8.44;72.07
72925;BME280;61070;50.794;7.054;2024-02-21T01:17:57;101735.69;;;8.40;72.26
72925;BME280;61070;50.794;7.054;2024-02-21T01:18:57;101735.78;;;8.34;72.73
72925;BME280;61070;50.794;7.054;2024-02-21T01:19:57;101735.78;;;8.34;72.76
72925;BME280;61070;50.794;7.054;2024-02-21T01:20:58;101731.41;;;8.35;72.78
72925;BME280;61070;50.794;7.054;2024-02-21T01:21:59;101727.94;;;8.34;72.74
72925;BME280;61070;50.794;7.054;2024-02-21T01:22:59;101733.16;;;8.36;72.39
72925;BME280;61070;50.794;7.054;2024-02-21T01:23:59;101721.88;;;8.32;72.56
72925;BME280;61070;50.794;7.054;2024-02-21T01:24:59;101719.41;;;8.26;72.65
72925;BME280;61070;50.794;7.054;2024-02-21T01:26:00;101722.03;;;8.24;73.11
72925;BME280;61070;50.794;7.054;2024-02-21T01:27:00;101724.69;;;8.23;73.13
72925;BME280;61070;50.794;7.054;2024-02-21T01:28:00;101721.28;;;8.19;73.36
72925;BME280;61070;50.794;7.054;2024-02-21T01:29:01;101719.50;;;8.20;73.39
72925;BME280;61070;50.794;7.054;2024-02-21T01:30:01;101715.13;;;8.22;73.19
72925;BME280;61070;50.794;7.054;2024-02-21T01:31:01;101719.47;;;8.23;73.24
72925;BME280;61070;50.794;7.054;2024-02-21T01:32:01;101713.41;;;8.21;73.65
72925;BME280;61070;50.794;7.054;2024-02-21T01:33:02;101717.56;;;8.29;72.97
72925;BME280;61070;50.794;7.054;2024-02-21T01:34:02;101719.41;;;8.26;73.41
72925;BME280;61070;50.794;7.054;2024-02-21T01:35:03;101722.78;;;8.29;73.38
72925;BME280;61070;50.794;7.054;2024-02-21T01:36:04;101725.50;;;8.26;73.46
72925;BME280;61070;50.794;7.054;2024-02-21T01:37:06;101722.84;;;8.28;73.46
72925;BME280;61070;50.794;7.054;2024-02-21T01:38:07;101717.66;;;8.26;73.79
72925;BME280;61070;50.794;7.054;2024-02-21T01:39:07;101711.56;;;8.24;73.72
72925;BME280;61070;50.794;7.054;2024-02-21T01:40:08;101712.41;;;8.26;73.69
72925;BME280;61070;50.794;7.054;2024-02-21T01:41:09;101711.47;;;8.29;73.54
72925;BME280;61070;50.794;7.054;2024-02-21T01:42:09;101707.16;;;8.26;73.66
72925;BME280;61070;50.794;7.054;2024-02-21T01:43:19;101702.03;;;8.22;73.68
72925;BME280;61070;50.794;7.054;2024-02-21T01:44:20;101709.84;;;8.23;73.91
72925;BME280;61070;50.794;7.054;2024-02-21T01:45:20;101712.28;;;8.33;73.63
72925;BME280;61070;50.794;7.054;2024-02-21T01:46:21;101711.38;;;8.34;73.22
72925;BME280;61070;50.794;7.054;2024-02-21T01:47:21;101710.59;;;8.28;73.67
72925;BME280;61070;50.794;7.054;2024-02-21T01:48:22;101705.31;;;8.30;73.59
72925;BME280;61070;50.794;7.054;2024-02-21T01:49:23;101716.66;;;8.32;73.52
72925;BME280;61070;50.794;7.054;2024-02-21T01:50:24;101710.41;;;8.39;73.06
72925;BME280;61070;50.794;7.054;2024-02-21T01:51:25;101699.88;;;8.42;72.67
72925;BME280;61070;50.794;7.054;2024-02-21T01:52:25;101706.00;;;8.40;72.90
72925;BME280;61070;50.794;7.054;2024-02-21T01:53:37;101714.78;;;8.39;73.03
72925;BME280;61070;50.794;7.054;2024-02-21T01:54:38;101709.59;;;8.34;73.38
72925;BME280;61070;50.794;7.054;2024-02-21T01:55:38;101717.47;;;8.34;73.33
72925;BME280;61070;50.794;7.054;2024-02-21T01:56:38;101703.47;;;8.35;73.30
72925;BME280;61070;50.794;7.054;2024-02-21T01:57:42;101705.28;;;8.33;73.48
72925;BME280;61070;50.794;7.054;2024-02-21T01:58:45;101707.78;;;8.39;73.56
72925;BME280;61070;50.794;7.054;2024-02-21T01:59:46;101700.88;;;8.37;73.35
72925;BME280;61070;50.794;7.054;2024-02-21T02:00:48;101700.88;;;8.34;73.83
72925;BME280;61070;50.794;7.054;2024-02-21T02:01:50;101696.50;;;8.34;73.94
72925;BME280;61070;50.794;7.054;2024-02-21T02:02:51;101699.19;;;8.33;73.85
72925;BME280;61070;50.794;7.054;2024-02-21T02:03:51;101686.09;;;8.33;73.76
72925;BME280;61070;50.794;7.054;2024-02-21T02:04:52;101688.75;;;8.29;73.72
72925;BME280;61070;50.794;7.054;2024-02-21T02:05:53;101683.56;;;8.28;73.85
72925;BME280;61070;50.794;7.054;2024-02-21T02:06:54;101695.75;;;8.29;74.21
72925;BME280;61070;50.794;7.054;2024-02-21T02:07:55;101687.91;;;8.29;74.39
72925;BME280;61070;50.794;7.054;2024-02-21T02:08:56;101689.63;;;8.30;74.38
72925;BME280;61070;50.794;7.054;2024-02-21T02:09:56;101687.03;;;8.28;74.02
72925;BME280;61070;50.794;7.054;2024-02-21T02:10:57;101683.56;;;8.28;74.38
72925;BME280;61070;50.794;7.054;2024-02-21T02:11:57;101675.75;;;8.26;74.34
72925;BME280;61070;50.794;7.054;2024-02-21T02:12:59;101674.84;;;8.27;74.30
72925;BME280;61070;50.794;7.054;2024-02-21T02:13:59;101679.06;;;8.36;73.87
72925;BME280;61070;50.794;7.054;2024-02-21T02:15:00;101673.84;;;8.33;73.83
72925;BME280;61070;50.794;7.054;2024-02-21T02:16:01;101680.88;;;8.31;74.30
72925;BME280;61070;50.794;7.054;2024-02-21T02:17:01;101677.28;;;8.35;74.00
72925;BME280;61070;50.794;7.054;2024-02-21T02:18:01;101676.50;;;8.32;74.09
72925;BME280;61070;50.794;7.054;2024-02-21T02:19:01;101673.09;;;8.28;74.39
72925;BME280;61070;50.794;7.054;2024-02-21T02:20:02;101664.38;;;8.27;74.47
72925;BME280;61070;50.794;7.054;2024-02-21T02:21:16;101664.38;;;8.27;74.63
72925;BME280;61070;50.794;7.054;2024-02-21T02:22:28;101660.06;;;8.25;74.59
72925;BME280;61070;50.794;7.054;2024-02-21T02:23:32;101650.50;;;8.24;74.76
72925;BME280;61070;50.794;7.054;2024-02-21T02:24:32;101648.66;;;8.27;74.37
72925;BME280;61070;50.794;7.054;2024-02-21T02:25:33;101648.78;;;8.23;74.42
72925;BME280;61070;50.794;7.054;2024-02-21T02:26:33;101646.13;;;8.24;74.60
72925;BME280;61070;50.794;7.054;2024-02-21T02:27:41;101645.09;;;8.30;74.47
72925;BME280;61070;50.794;7.054;2024-02-21T02:28:41;101643.44;;;8.27;74.36
72925;BME280;61070;50.794;7.054;2024-02-21T02:29:42;101640.88;;;8.24;74.70
72925;BME280;61070;50.794;7.054;2024-02-21T02:30:42;101640.66;;;8.34;74.65
72925;BME280;61070;50.794;7.054;2024-02-21T02:31:43;101645.00;;;8.35;74.53
72925;BME280;61070;50.794;7.054;2024-02-21T02:32:46;101637.25;;;8.30;74.46
72925;BME280;61070;50.794;7.054;2024-02-21T02:33:46;101632.00;;;8.30;74.37
72925;BME280;61070;50.794;7.054;2024-02-21T02:34:48;101639.00;;;8.29;74.47
72925;BME280;61070;50.794;7.054;2024-02-21T02:35:48;101635.53;;;8.29;74.58
72925;BME280;61070;50.794;7.054;2024-02-21T02:36:48;101637.16;;;8.36;74.10
72925;BME280;61070;50.794;7.054;2024-02-21T02:37:50;101627.56;;;8.34;74.06
72925;BME280;61070;50.794;7.054;2024-02-21T02:38:50;101625.16;;;8.26;74.65
72925;BME280;61070;50.794;7.054;2024-02-21T02:39:50;101625.22;;;8.23;74.69
72925;BME280;61070;50.794;7.054;2024-02-21T02:40:51;101613.13;;;8.17;75.10
72925;BME280;61070;50.794;7.054;2024-02-21T02:41:51;101615.81;;;8.14;75.20
72925;BME280;61070;50.794;7.054;2024-02-21T02:42:51;101616.47;;;8.24;74.75
72925;BME280;61070;50.794;7.054;2024-02-21T02:43:54;101612.94;;;8.25;74.57
72925;BME280;61070;50.794;7.054;2024-02-21T02:44:55;101616.41;;;8.27;74.62
72925;BME280;61070;50.794;7.054;2024-02-21T02:45:57;101619.91;;;8.26;74.70
72925;BME280;61070;50.794;7.054;2024-02-21T02:46:57;101615.31;;;8.36;74.23
72925;BME280;61070;50.794;7.054;2024-02-21T02:47:57;101613.59;;;8.35;74.48
72925;BME280;61070;50.794;7.054;2024-02-21T02:48:58;101613.84;;;8.24;74.88
72925;BME280;61070;50.794;7.054;2024-02-21T02:49:58;101616.34;;;8.28;74.90
72925;BME280;61070;50.794;7.054;2024-02-21T02:50:58;101617.19;;;8.31;74.54
72925;BME280;61070;50.794;7.054;2024-02-21T02:51:58;101617.19;;;8.31;74.56
72925;BME280;61070;50.794;7.054;2024-02-21T02:52:59;101618.16;;;8.26;75.09
72925;BME280;61070;50.794;7.054;2024-02-21T02:53:59;101622.59;;;8.23;74.85
72925;BME280;61070;50.794;7.054;2024-02-21T02:54:59;101619.16;;;8.21;75.24
72925;BME280;61070;50.794;7.054;2024-02-21T02:56:02;101617.22;;;8.29;74.69
72925;BME280;61070;50.794;7.054;2024-02-21T02:57:02;101619.81;;;8.29;75.13
72925;BME280;61070;50.794;7.054;2024-02-21T02:58:04;101621.63;;;8.27;75.06
72925;BME280;61070;50.794;7.054;2024-02-21T02:59:04;101622.59;;;8.23;74.70
72925;BME280;61070;50.794;7.054;2024-02-21T03:00:05;101619.94;;;8.24;74.76
72925;BME280;61070;50.794;7.054;2024-02-21T03:01:07;101612.97;;;8.23;74.67
72925;BME280;61070;50.794;7.054;2024-02-21T03:02:07;101624.47;;;8.18;74.80
72925;BME280;61070;50.794;7.054;2024-02-21T03:03:07;101617.22;;;8.29;74.81
72925;BME280;61070;50.794;7.054;2024-02-21T03:04:08;101619.16;;;8.21;74.86
72925;BME280;61070;50.794;7.054;2024-02-21T03:05:16;101614.91;;;8.15;75.29
72925;BME280;61070;50.794;7.054;2024-02-21T03:06:17;101614.19;;;8.09;75.79
72925;BME280;61070;50.794;7.054;2024-02-21T03:07:17;101614.88;;;8.17;75.25
72925;BME280;61070;50.794;7.054;2024-02-21T03:08:17;101608.84;;;8.13;75.28
72925;BME280;61070;50.794;7.054;2024-02-21T03:09:17;101610.50;;;8.17;74.88
72925;BME280;61070;50.794;7.054;2024-02-21T03:10:18;101608.91;;;8.12;75.16
72925;BME280;61070;50.794;7.054;2024-02-21T03:11:18;101602.88;;;8.08;75.46
72925;BME280;61070;50.794;7.054;2024-02-21T03:12:19;101603.88;;;8.02;75.80
72925;BME280;61070;50.794;7.054;2024-02-21T03:13:25;101590.84;;;8.01;75.63
72925;BME280;61070;50.794;7.054;2024-02-21T03:14:25;101588.09;;;8.06;75.48
72925;BME280;61070;50.794;7.054;2024-02-21T03:15:25;101593.34;;;8.04;75.37
72925;BME280;61070;50.794;7.054;2024-02-21T03:16:25;101584.72;;;8.00;75.52
72925;BME280;61070;50.794;7.054;2024-02-21T03:17:26;101591.75;;;7.98;75.68
72925;BME280;61070;50.794;7.054;2024-02-21T03:18:29;101585.50;;;8.04;75.55
72925;BME280;61070;50.794;7.054;2024-02-21T03:19:29;101590.75;;;8.04;75.20
72925;BME280;61070;50.794;7.054;2024-02-21T03:20:29;101587.47;;;7.94;75.65
72925;BME280;61070;50.794;7.054;2024-02-21T03:21:30;101579.66;;;7.93;75.62
72925;BME280;61070;50.794;7.054;2024-02-21T03:22:33;101575.34;;;7.90;75.74
72925;BME280;61070;50.794;7.054;2024-02-21T03:23:33;101578.09;;;7.86;75.89
72925;BME280;61070;50.794;7.054;2024-02-21T03:24:34;101581.56;;;7.85;75.85
72925;BME280;61070;50.794;7.054;2024-02-21T03:25:34;101567.84;;;7.75;76.28
72925;BME280;61070;50.794;7.054;2024-02-21T03:26:34;101575.72;;;7.73;76.47
72925;BME280;61070;50.794;7.054;2024-02-21T03:27:34;101563.69;;;7.66;76.52
72925;BME280;61070;50.794;7.054;2024-02-21T03:28:35;101559.38;;;7.64;76.67
72925;BME280;61070;50.794;7.054;2024-02-21T03:29:35;101565.56;;;7.60;76.71
72925;BME280;61070;50.794;7.054;2024-02-21T03:30:35;101563.03;;;7.57;76.71
72925;BME280;61070;50.794;7.054;2024-02-21T03:31:35;101560.41;;;7.57;76.80
72925;BME280;61070;50.794;7.054;2024-02-21T03:32:36;101561.31;;;7.54;76.83
72925;BME280;61070;50.794;7.054;2024-02-21T03:33:36;101570.88;;;7.55;76.81
72925;BME280;61070;50.794;7.054;2024-02-21T03:34:36;101562.16;;;7.56;76.75
72925;BME280;61070;50.794;7.054;2024-02-21T03:35:37;101569.25;;;7.51;77.01
72925;BME280;61070;50.794;7.054;2024-02-21T03:36:37;101566.69;;;7.48;77.22
72925;BME280;61070;50.794;7.054;2024-02-21T03:37:37;101566.72;;;7.46;77.21
72925;BME280;61070;50.794;7.054;2024-02-21T03:38:38;101568.16;;;7.61;76.73
72925;BME280;61070;50.794;7.054;2024-02-21T03:39:38;101571.59;;;7.63;76.75
72925;BME280;61070;50.794;7.054;2024-02-21T03:40:38;101565.50;;;7.63;76.96
72925;BME280;61070;50.794;7.054;2024-02-21T03:41:38;101567.28;;;7.61;76.82
72925;BME280;61070;50.794;7.054;2024-02-21T03:42:39;101570.75;;;7.63;76.94
72925;BME280;61070;50.794;7.054;2024-02-21T03:43:39;101567.19;;;7.65;76.72
72925;BME280;61070;50.794;7.054;2024-02-21T03:44:39;101565.38;;;7.69;76.83
72925;BME280;61070;50.794;7.054;2024-02-21T03:45:39;101566.28;;;7.68;76.86
72925;BME280;61070;50.794;7.054;2024-02-21T03:46:40;101561.94;;;7.65;76.85
72925;BME280;61070;50.794;7.054;2024-02-21T03:47:41;101566.13;;;7.74;76.87
72925;BME280;61070;50.794;7.054;2024-02-21T03:48:41;101558.31;;;7.72;76.90
72925;BME280;61070;50.794;7.054;2024-02-21T03:49:41;101560.06;;;7.72;76.93
72925;BME280;61070;50.794;7.054;2024-02-21T03:50:43;101564.38;;;7.74;76.65
72925;BME280;61070;50.794;7.054;2024-02-21T03:51:43;101556.56;;;7.73;76.44
72925;BME280;61070;50.794;7.054;2024-02-21T03:52:43;101555.72;;;7.72;76.49
72925;BME280;61070;50.794;7.054;2024-02-21T03:53:43;101560.84;;;7.77;76.68
72925;BME280;61070;50.794;7.054;2024-02-21T03:54:44;101558.22;;;7.77;76.33
72925;BME280;61070;50.794;7.054;2024-02-21T03:55:44;101556.47;;;7.77;76.37
72925;BME280;61070;50.794;7.054;2024-02-21T03:56:45;101558.28;;;7.74;76.77
72925;BME280;61070;50.794;7.054;2024-02-21T03:57:45;101553.03;;;7.74;76.70
72925;BME280;61070;50.794;7.054;2024-02-21T03:58:45;101559.03;;;7.79;76.04
72925;BME280;61070;50.794;7.054;2024-02-21T03:59:46;101563.34;;;7.82;76.07
72925;BME280;61070;50.794;7.054;2024-02-21T04:00:47;101555.34;;;7.88;75.95
72925;BME280;61070;50.794;7.054;2024-02-21T04:01:51;101560.66;;;7.85;76.09
72925;BME280;61070;50.794;7.054;2024-02-21T04:02:52;101557.31;;;7.78;76.38
72925;BME280;61070;50.794;7.054;2024-02-21T04:03:52;101559.00;;;7.81;76.34
72925;BME280;61070;50.794;7.054;2024-02-21T04:04:52;101550.28;;;7.82;76.20
72925;BME280;61070;50.794;7.054;2024-02-21T04:05:53;101559.09;;;7.77;76.75
72925;BME280;61070;50.794;7.054;2024-02-21T04:06:53;101545.97;;;7.79;76.44
72925;BME280;61070;50.794;7.054;2024-02-21T04:07:54;101547.72;;;7.78;76.43
72925;BME280;61070;50.794;7.054;2024-02-21T04:08:54;101550.34;;;7.78;76.45
72925;BME280;61070;50.794;7.054;2024-02-21T04:09:55;101544.28;;;7.75;76.61
72925;BME280;61070;50.794;7.054;2024-02-21T04:10:55;101553.00;;;7.75;76.65
72925;BME280;61070;50.794;7.054;2024-02-21T04:11:55;101546.91;;;7.75;76.66
72925;BME280;61070;50.794;7.054;2024-02-21T04:12:56;101553.88;;;7.76;76.54
72925;BME280;61070;50.794;7.054;2024-02-21T04:13:56;101553.94;;;7.73;76.85
72925;BME280;61070;50.794;7.054;2024-02-21T04:14:56;101558.38;;;7.69;77.21
72925;BME280;61070;50.794;7.054;2024-02-21T04:15:57;101567.09;;;7.70;76.90
72925;BME280;61070;50.794;7.054;2024-02-21T04:16:57;101565.31;;;7.72;76.93
72925;BME280;61070;50.794;7.054;2024-02-21T04:17:57;101565.22;;;7.75;76.84
72925;BME280;61070;50.794;7.054;2024-02-21T04:18:57;101567.75;;;7.80;76.55
72925;BME280;61070;50.794;7.054;2024-02-21T04:20:03;101564.31;;;7.77;76.74
72925;BME280;61070;50.794;7.054;2024-02-21T04:21:09;101566.03;;;7.78;76.68
72925;BME280;61070;50.794;7.054;2024-02-21T04:22:09;101557.38;;;7.76;76.82
72925;BME280;61070;50.794;7.054;2024-02-21T04:23:09;101554.75;;;7.76;76.81
72925;BME280;61070;50.794;7.054;2024-02-21T04:24:10;101557.38;;;7.76;76.74
72925;BME280;61070;50.794;7.054;2024-02-21T04:25:10;101556.47;;;7.77;76.27
72925;BME280;61070;50.794;7.054;2024-02-21T04:26:13;101560.84;;;7.75;76.70
72925;BME280;61070;50.794;7.054;2024-02-21T04:27:13;101553.91;;;7.74;76.69
72925;BME280;61070;50.794;7.054;2024-02-21T04:28:14;101550.44;;;7.74;76.76
72925;BME280;61070;50.794;7.054;2024-02-21T04:29:14;101557.28;;;7.80;76.64
72925;BME280;61070;50.794;7.054;2024-02-21T04:30:14;101549.41;;;7.81;76.37
72925;BME280;61070;50.794;7.054;2024-02-21T04:31:15;101553.81;;;7.79;76.25
72925;BME280;61070;50.794;7.054;2024-02-21T04:32:16;101547.56;;;7.85;76.10
72925;BME280;61070;50.794;7.054;2024-02-21T04:33:16;101552.88;;;7.82;76.08
72925;BME280;61070;50.794;7.054;2024-02-21T04:34:16;101547.31;;;7.95;75.14
72925;BME280;61070;50.794;7.054;2024-02-21T04:35:16;101549.16;;;7.92;75.45
72925;BME280;61070;50.794;7.054;2024-02-21T04:36:17;101547.56;;;7.86;75.82
72925;BME280;61070;50.794;7.054;2024-02-21T04:37:17;101545.84;;;7.84;76.08
72925;BME280;61070;50.794;7.054;2024-02-21T04:38:17;101548.56;;;7.79;76.15
72925;BME280;61070;50.794;7.054;2024-02-21T04:39:18;101542.31;;;7.86;76.01
72925;BME280;61070;50.794;7.054;2024-02-21T04:40:18;101538.00;;;7.84;76.14
72925;BME280;61070;50.794;7.054;2024-02-21T04:41:18;101541.56;;;7.81;75.83
72925;BME280;61070;50.794;7.054;2024-02-21T04:42:19;101529.31;;;7.83;75.98
72925;BME280;61070;50.794;7.054;2024-02-21T04:43:19;101538.06;;;7.82;75.74
72925;BME280;61070;50.794;7.054;2024-02-21T04:44:19;101532.06;;;7.77;76.05
72925;BME280;61070;50.794;7.054;2024-02-21T04:45:22;101535.50;;;7.79;76.11
72925;BME280;61070;50.794;7.054;2024-02-21T04:46:22;101528.59;;;7.76;75.95
72925;BME280;61070;50.794;7.054;2024-02-21T04:47:22;101530.91;;;7.89;75.68
72925;BME280;61070;50.794;7.054;2024-02-21T04:48:26;101528.34;;;7.87;75.44
72925;BME280;61070;50.794;7.054;2024-02-21T04:49:26;101523.16;;;7.84;75.57
72925;BME280;61070;50.794;7.054;2024-02-21T04:50:27;101516.25;;;7.82;75.89
72925;BME280;61070;50.794;7.054;2024-02-21T04:51:27;101524.94;;;7.84;75.61
72925;BME280;61070;50.794;7.054;2024-02-21T04:52:28;101521.50;;;7.82;75.90
72925;BME280;61070;50.794;7.054;2024-02-21T04:53:28;101530.31;;;7.77;76.16
72925;BME280;61070;50.794;7.054;2024-02-21T04:54:28;101525.13;;;7.76;76.58
72925;BME280;61070;50.794;7.054;2024-02-21T04:55:28;101526.75;;;7.80;75.97
72925;BME280;61070;50.794;7.054;2024-02-21T04:56:29;101523.25;;;7.81;76.22
72925;BME280;61070;50.794;7.054;2024-02-21T04:57:29;101536.94;;;7.92;75.70
72925;BME280;61070;50.794;7.054;2024-02-21T04:58:29;101546.72;;;7.84;75.86
72925;BME280;61070;50.794;7.054;2024-02-21T04:59:29;101536.84;;;7.97;75.26
72925;BME280;61070;50.794;7.054;2024-02-21T05:00:30;101536.00;;;7.95;75.26
72925;BME280;61070;50.794;7.054;2024-02-21T05:01:30;101533.53;;;7.89;75.52
72925;BME280;61070;50.794;7.054;2024-02-21T05:02:31;101531.75;;;7.89;75.80
72925;BME280;61070;50.794;7.054;2024-02-21T05:03:31;101533.25;;;8.01;75.15
72925;BME280;61070;50.794;7.054;2024-02-21T05:04:31;101525.34;;;8.02;74.80
72925;BME280;61070;50.794;7.054;2024-02-21T05:05:31;101526.47;;;7.92;75.28
72925;BME280;61070;50.794;7.054;2024-02-21T05:06:32;101525.53;;;7.95;75.34
72925;BME280;61070;50.794;7.054;2024-02-21T05:07:32;101523.91;;;7.89;75.48
72925;BME280;61070;50.794;7.054;2024-02-21T05:08:32;101519.66;;;7.85;75.75
72925;BME280;61070;50.794;7.054;2024-02-21T05:09:33;101522.25;;;7.85;75.59
72925;BME280;61070;50.794;7.054;2024-02-21T05:10:33;101524.97;;;7.81;75.82
72925;BME280;61070;50.794;7.054;2024-02-21T05:11:34;101531.09;;;7.81;76.13
72925;BME280;61070;50.794;7.054;2024-02-21T05:12:35;101519.75;;;7.81;76.36
72925;BME280;61070;50.794;7.054;2024-02-21T05:13:35;101519.69;;;7.84;75.83
72925;BME280;61070;50.794;7.054;2024-02-21T05:14:35;101519.66;;;7.85;75.37
72925;BME280;61070;50.794;7.054;2024-02-21T05:15:36;101523.66;;;8.01;75.30
72925;BME280;61070;50.794;7.054;2024-02-21T05:16:36;101525.50;;;7.96;75.12
72925;BME280;61070;50.794;7.054;2024-02-21T05:17:36;101519.44;;;7.94;74.94
72925;BME280;61070;50.794;7.054;2024-02-21T05:18:36;101517.66;;;7.96;74.77
72925;BME280;61070;50.794;7.054;2024-02-21T05:19:37;101517.69;;;7.95;74.66
72925;BME280;61070;50.794;7.054;2024-02-21T05:20:37;101514.28;;;7.91;75.09
72925;BME280;61070;50.794;7.054;2024-02-21T05:21:37;101521.41;;;7.86;75.61